createdAt,value
2018-10-01T00:00:21.217Z,10.60
2018-10-01T00:02:50.249Z,10.60
2018-10-01T00:05:19.300Z,10.60
2018-10-01T00:07:48.367Z,10.50
2018-10-01T00:10:17.412Z,10.50
2018-10-01T00:12:46.469Z,10.50
2018-10-01T00:15:15.521Z,10.40
2018-10-01T00:17:44.611Z,10.40
2018-10-01T00:20:19.114Z,10.40
2018-10-01T00:22:49.370Z,10.30
2018-10-01T00:25:18.947Z,10.30
2018-10-01T00:27:48.257Z,10.40
2018-10-01T00:30:17.360Z,10.20
2018-10-01T00:32:46.372Z,10.10
2018-10-01T00:35:15.475Z,10.00
2018-10-01T00:37:44.516Z,9.80
2018-10-01T00:40:13.601Z,9.70
2018-10-01T00:42:42.629Z,9.60
2018-10-01T00:45:11.717Z,9.60
2018-10-01T00:47:40.777Z,9.50
2018-10-01T00:50:09.776Z,9.50
2018-10-01T00:52:38.850Z,9.40
2018-10-01T00:55:07.888Z,9.40
2018-10-01T00:57:36.953Z,9.30
2018-10-01T01:00:06.122Z,9.30
2018-10-01T01:02:35.185Z,9.30
2018-10-01T01:05:04.337Z,9.30
2018-10-01T01:07:33.474Z,9.30
2018-10-01T01:10:02.548Z,9.40
2018-10-01T01:12:31.533Z,9.40
2018-10-01T01:15:00.559Z,9.30
2018-10-01T01:17:29.645Z,9.40
2018-10-01T01:19:58.712Z,9.40
2018-10-01T01:22:27.753Z,9.40
2018-10-01T01:24:57.114Z,9.30
2018-10-01T01:27:26.158Z,9.30
2018-10-01T01:29:55.181Z,9.30
2018-10-01T01:32:24.313Z,9.30
2018-10-01T01:34:53.385Z,9.30
2018-10-01T01:37:22.429Z,9.30
2018-10-01T01:39:51.456Z,9.30
2018-10-01T01:42:20.497Z,9.30
2018-10-01T01:44:49.498Z,9.40
2018-10-01T01:47:18.555Z,9.40
2018-10-01T01:49:47.575Z,9.40
2018-10-01T01:52:16.611Z,9.30
2018-10-01T01:54:45.613Z,9.30
2018-10-01T01:57:14.667Z,9.30
2018-10-01T01:59:43.676Z,9.30
2018-10-01T02:02:12.734Z,9.30
2018-10-01T02:04:41.740Z,9.20
2018-10-01T02:07:10.764Z,9.10
2018-10-01T02:09:39.818Z,9.00
2018-10-01T02:12:08.865Z,8.90
2018-10-01T02:14:37.913Z,8.90
2018-10-01T02:17:06.908Z,8.70
2018-10-01T02:19:35.973Z,8.50
2018-10-01T02:22:05.027Z,8.40
2018-10-01T02:24:34.066Z,8.20
2018-10-01T02:27:03.110Z,8.20
2018-10-01T02:29:32.112Z,8.10
2018-10-01T02:32:01.213Z,8.20
2018-10-01T02:34:30.272Z,8.10
2018-10-01T02:36:59.337Z,8.10
2018-10-01T02:39:28.362Z,8.10
2018-10-01T02:41:57.396Z,8.10
2018-10-01T02:44:26.445Z,8.00
2018-10-01T02:46:55.438Z,8.00
2018-10-01T02:49:24.461Z,8.00
2018-10-01T02:51:58.919Z,8.00
2018-10-01T02:54:31.428Z,8.00
2018-10-01T02:57:01.400Z,7.90
2018-10-01T02:59:30.430Z,7.90
2018-10-01T03:01:59.530Z,8.00
2018-10-01T03:04:29.116Z,8.10
2018-10-01T03:06:58.194Z,8.10
2018-10-01T03:09:33.802Z,8.00
2018-10-01T03:12:02.907Z,7.90
2018-10-01T03:14:31.951Z,7.90
2018-10-01T03:17:01.045Z,7.80
2018-10-01T03:19:30.078Z,7.70
2018-10-01T03:21:59.171Z,7.60
2018-10-01T03:24:28.181Z,7.50
2018-10-01T03:26:57.230Z,7.50
2018-10-01T03:29:26.244Z,7.50
2018-10-01T03:31:55.397Z,7.50
2018-10-01T03:34:24.629Z,7.50
2018-10-01T03:36:53.685Z,7.60
2018-10-01T03:39:22.717Z,7.60
2018-10-01T03:41:51.751Z,7.50
2018-10-01T03:44:20.915Z,7.40
2018-10-01T03:46:49.948Z,7.30
2018-10-01T03:49:19.007Z,7.10
2018-10-01T03:51:48.113Z,7.00
2018-10-01T03:54:17.491Z,7.00
2018-10-01T03:56:46.529Z,6.90
2018-10-01T03:59:15.542Z,6.90
2018-10-01T04:01:45.280Z,6.90
2018-10-01T04:04:14.342Z,6.80
2018-10-01T04:06:43.402Z,6.80
2018-10-01T04:09:12.454Z,6.80
2018-10-01T04:11:41.494Z,6.80
2018-10-01T04:14:10.497Z,6.80
2018-10-01T04:16:39.581Z,6.80
2018-10-01T04:19:08.577Z,6.70
2018-10-01T04:21:37.677Z,6.70
2018-10-01T04:24:06.723Z,6.60
2018-10-01T04:26:35.785Z,6.60
2018-10-01T04:29:04.832Z,6.60
2018-10-01T04:31:33.840Z,6.70
2018-10-01T04:34:02.867Z,6.80
2018-10-01T04:36:31.948Z,6.80
2018-10-01T04:39:00.983Z,6.90
2018-10-01T04:41:30.070Z,7.00
2018-10-01T04:43:59.113Z,7.10
2018-10-01T04:46:28.285Z,7.20
2018-10-01T04:48:57.317Z,7.40
2018-10-01T04:51:26.387Z,7.50
2018-10-01T04:53:55.445Z,7.60
2018-10-01T04:56:24.453Z,7.70
2018-10-01T04:58:53.512Z,7.80
2018-10-01T05:01:22.513Z,7.90
2018-10-01T05:03:51.775Z,7.90
2018-10-01T05:06:20.918Z,8.00
2018-10-01T05:08:50.004Z,8.00
2018-10-01T05:11:19.046Z,8.00
2018-10-01T05:13:48.129Z,8.00
2018-10-01T05:16:17.174Z,8.00
2018-10-01T05:18:46.353Z,8.00
2018-10-01T05:21:15.442Z,8.00
2018-10-01T05:23:44.560Z,8.00
2018-10-01T05:26:13.589Z,7.90
2018-10-01T05:28:42.652Z,7.90
2018-10-01T05:31:11.741Z,7.70
2018-10-01T05:33:40.778Z,7.60
2018-10-01T05:36:09.912Z,7.40
2018-10-01T05:38:38.949Z,7.40
2018-10-01T05:41:08.305Z,7.40
2018-10-01T05:43:37.693Z,7.50
2018-10-01T05:46:07.054Z,7.50
2018-10-01T05:51:11.469Z,7.30
2018-10-01T05:53:41.170Z,7.30
2018-10-01T05:56:10.244Z,7.30
2018-10-01T05:58:39.334Z,7.20
2018-10-01T06:01:08.408Z,7.20
2018-10-01T06:03:37.513Z,7.30
2018-10-01T06:06:06.667Z,7.20
2018-10-01T06:08:35.774Z,7.30
2018-10-01T06:11:04.900Z,7.40
2018-10-01T06:13:33.988Z,7.60
2018-10-01T06:16:03.084Z,7.80
2018-10-01T06:18:32.191Z,8.00
2018-10-01T06:21:01.257Z,8.20
2018-10-01T06:23:30.356Z,8.20
2018-10-01T06:25:59.453Z,8.40
2018-10-01T06:28:28.582Z,8.40
2018-10-01T06:30:57.634Z,8.40
2018-10-01T06:33:26.773Z,8.50
2018-10-01T06:35:56.146Z,8.70
2018-10-01T06:38:25.202Z,8.80
2018-10-01T06:40:54.331Z,8.80
2018-10-01T06:43:23.513Z,8.90
2018-10-01T06:45:52.604Z,8.80
2018-10-01T06:48:21.652Z,8.80
2018-10-01T06:50:50.708Z,8.90
2018-10-01T06:53:19.824Z,8.90
2018-10-01T06:55:48.891Z,8.90
2018-10-01T06:58:17.972Z,8.90
2018-10-01T07:00:47.057Z,8.90
2018-10-01T07:03:16.151Z,8.90
2018-10-01T07:05:45.384Z,8.80
2018-10-01T07:08:14.307Z,8.80
2018-10-01T07:10:43.680Z,8.90
2018-10-01T07:13:12.737Z,9.00
2018-10-01T07:15:41.880Z,9.10
2018-10-01T07:18:11.007Z,9.20
2018-10-01T07:20:40.045Z,9.20
2018-10-01T07:23:09.267Z,9.10
2018-10-01T07:25:38.153Z,9.00
2018-10-01T07:28:07.243Z,8.90
2018-10-01T07:30:36.250Z,8.90
2018-10-01T07:33:05.313Z,8.90
2018-10-01T07:35:34.933Z,8.90
2018-10-01T07:38:03.994Z,8.80
2018-10-01T07:40:32.993Z,8.80
2018-10-01T07:43:02.034Z,8.80
2018-10-01T07:45:31.062Z,8.80
2018-10-01T07:48:00.103Z,8.80
2018-10-01T07:50:29.201Z,8.90
2018-10-01T07:52:58.202Z,8.90
2018-10-01T07:55:27.259Z,8.90
2018-10-01T07:57:56.265Z,8.80
2018-10-01T08:00:25.326Z,8.70
2018-10-01T08:02:54.358Z,8.70
2018-10-01T08:05:23.402Z,8.70
2018-10-01T08:07:52.452Z,8.60
2018-10-01T08:10:21.499Z,8.60
2018-10-01T08:12:50.534Z,8.60
2018-10-01T08:15:19.542Z,8.60
2018-10-01T08:17:48.596Z,8.60
2018-10-01T08:20:17.621Z,8.60
2018-10-01T08:22:46.646Z,8.60
2018-10-01T08:25:15.686Z,8.70
2018-10-01T08:27:44.692Z,8.70
2018-10-01T08:30:13.819Z,8.70
2018-10-01T08:32:42.836Z,8.70
2018-10-01T08:35:12.003Z,8.80
2018-10-01T08:37:41.051Z,8.90
2018-10-01T08:40:10.081Z,9.10
2018-10-01T08:42:39.179Z,9.40
2018-10-01T08:45:08.250Z,9.60
2018-10-01T08:47:37.398Z,9.80
2018-10-01T08:50:14.581Z,9.90
2018-10-01T08:52:49.051Z,9.90
2018-10-01T08:55:18.118Z,9.80
2018-10-01T08:57:47.191Z,9.80
2018-10-01T09:00:16.217Z,9.70
2018-10-01T09:02:45.255Z,9.70
2018-10-01T09:05:14.334Z,9.60
2018-10-01T09:07:43.381Z,9.50
2018-10-01T09:10:12.414Z,9.30
2018-10-01T09:12:41.470Z,9.20
2018-10-01T09:15:10.514Z,9.10
2018-10-01T09:17:39.592Z,9.10
2018-10-01T09:20:08.824Z,9.10
2018-10-01T09:22:37.907Z,9.00
2018-10-01T09:25:06.968Z,9.10
2018-10-01T09:27:36.084Z,9.20
2018-10-01T09:30:05.168Z,9.30
2018-10-01T09:32:34.272Z,9.30
2018-10-01T09:35:03.329Z,9.40
2018-10-01T09:37:32.353Z,9.50
2018-10-01T09:40:01.794Z,9.60
2018-10-01T09:42:32.017Z,9.80
2018-10-01T09:45:01.026Z,9.90
2018-10-01T09:47:30.107Z,9.80
2018-10-01T09:49:59.184Z,9.70
2018-10-01T09:52:28.243Z,9.60
2018-10-01T09:54:57.298Z,9.50
2018-10-01T09:57:26.356Z,9.70
2018-10-01T09:59:55.900Z,9.70
2018-10-01T10:02:24.992Z,9.80
2018-10-01T10:04:54.186Z,10.00
2018-10-01T10:07:23.099Z,10.00
2018-10-01T10:09:52.107Z,10.20
2018-10-01T10:12:21.210Z,10.40
2018-10-01T10:14:50.246Z,10.60
2018-10-01T10:17:19.356Z,10.90
2018-10-01T10:19:48.341Z,11.00
2018-10-01T10:22:17.390Z,11.10
2018-10-01T10:24:46.499Z,11.00
2018-10-01T10:27:15.582Z,11.00
2018-10-01T10:29:44.665Z,10.80
2018-10-01T10:32:13.755Z,10.60
2018-10-01T10:34:42.862Z,10.60
2018-10-01T10:37:11.884Z,10.50
2018-10-01T10:39:40.963Z,10.40
2018-10-01T10:42:09.993Z,10.30
2018-10-01T10:44:39.151Z,10.20
2018-10-01T10:47:09.352Z,10.00
2018-10-01T10:49:38.450Z,10.00
2018-10-01T10:52:07.537Z,9.90
2018-10-01T10:54:36.589Z,10.00
2018-10-01T10:57:06.141Z,10.20
2018-10-01T10:59:35.106Z,10.30
2018-10-01T11:02:04.183Z,10.40
2018-10-01T11:04:33.257Z,10.50
2018-10-01T11:07:02.491Z,10.70
2018-10-01T11:09:31.664Z,10.90
2018-10-01T11:12:00.853Z,11.10
2018-10-01T11:14:29.968Z,11.30
2018-10-01T11:16:59.001Z,11.30
2018-10-01T11:19:28.165Z,11.00
2018-10-01T11:21:57.188Z,10.70
2018-10-01T11:24:26.207Z,10.50
2018-10-01T11:26:55.269Z,10.30
2018-10-01T11:29:24.361Z,10.20
2018-10-01T11:31:53.554Z,10.20
2018-10-01T11:34:22.514Z,10.20
2018-10-01T11:36:51.523Z,10.40
2018-10-01T11:39:20.654Z,10.80
2018-10-01T11:41:49.779Z,11.10
2018-10-01T11:44:19.353Z,11.40
2018-10-01T11:46:51.297Z,11.60
2018-10-01T11:49:20.323Z,11.90
2018-10-01T11:51:49.283Z,12.00
2018-10-01T11:54:19.154Z,11.90
2018-10-01T11:56:48.168Z,11.10
2018-10-01T11:59:17.162Z,10.40
2018-10-01T12:01:46.180Z,10.00
2018-10-01T12:04:16.448Z,9.90
2018-10-01T12:06:46.946Z,9.90
2018-10-01T12:09:17.465Z,10.00
2018-10-01T12:11:47.816Z,10.20
2018-10-01T12:14:19.461Z,10.40
2018-10-01T12:16:48.675Z,10.80
2018-10-01T12:19:17.751Z,10.90
2018-10-01T12:21:46.997Z,10.90
2018-10-01T12:24:15.985Z,10.70
2018-10-01T12:26:45.057Z,10.60
2018-10-01T12:29:14.109Z,10.50
2018-10-01T12:31:43.093Z,10.60
2018-10-01T12:34:13.155Z,10.80
2018-10-01T12:36:43.870Z,10.90
2018-10-01T12:39:13.405Z,10.90
2018-10-01T12:41:42.599Z,10.90
2018-10-01T12:44:12.033Z,10.50
2018-10-01T12:46:41.032Z,10.00
2018-10-01T12:49:09.987Z,9.80
2018-10-01T12:51:39.033Z,9.70
2018-10-01T12:54:08.628Z,9.80
2018-10-01T12:56:37.765Z,10.10
2018-10-01T12:59:06.764Z,10.50
2018-10-01T13:01:35.757Z,10.90
2018-10-01T13:04:04.879Z,10.80
2018-10-01T13:06:34.019Z,10.60
2018-10-01T13:09:03.425Z,10.40
2018-10-01T13:11:33.047Z,10.40
2018-10-01T13:14:02.238Z,10.30
2018-10-01T13:16:31.783Z,10.30
2018-10-01T13:19:01.693Z,10.40
2018-10-01T13:21:30.684Z,10.50
2018-10-01T13:23:59.784Z,10.50
2018-10-01T13:26:28.808Z,10.60
2018-10-01T13:28:58.161Z,10.70
2018-10-01T13:31:28.273Z,10.80
2018-10-01T13:33:57.478Z,10.80
2018-10-01T13:36:26.572Z,10.90
2018-10-01T13:38:55.553Z,11.00
2018-10-01T13:41:24.545Z,11.10
2018-10-01T13:43:53.588Z,11.30
2018-10-01T13:46:22.684Z,11.50
2018-10-01T13:48:51.713Z,11.40
2018-10-01T13:51:20.692Z,11.00
2018-10-01T13:53:49.785Z,10.60
2018-10-01T13:56:25.487Z,10.00
2018-10-01T13:58:54.510Z,9.60
2018-10-01T14:01:23.637Z,9.30
2018-10-01T14:03:52.628Z,9.00
2018-10-01T14:06:21.664Z,8.80
2018-10-01T14:08:50.716Z,8.70
2018-10-01T14:11:19.724Z,8.70
2018-10-01T14:13:48.847Z,8.70
2018-10-01T14:16:17.761Z,8.70
2018-10-01T14:18:47.143Z,8.70
2018-10-01T14:21:16.152Z,8.90
2018-10-01T14:23:45.470Z,9.10
2018-10-01T14:26:14.491Z,9.30
2018-10-01T14:28:43.460Z,9.50
2018-10-01T14:31:12.573Z,9.80
2018-10-01T14:33:41.587Z,10.30
2018-10-01T14:36:10.620Z,10.70
2018-10-01T14:38:39.624Z,10.90
2018-10-01T14:41:08.652Z,11.10
2018-10-01T14:43:37.821Z,11.20
2018-10-01T14:46:07.401Z,11.20
2018-10-01T14:48:36.491Z,11.10
2018-10-01T14:51:05.541Z,10.90
2018-10-01T14:53:34.579Z,10.80
2018-10-01T14:56:04.009Z,10.70
2018-10-01T14:58:33.125Z,10.50
2018-10-01T15:01:02.291Z,10.40
2018-10-01T15:03:31.493Z,10.30
2018-10-01T15:06:00.563Z,10.20
2018-10-01T15:08:29.624Z,10.10
2018-10-01T15:10:58.688Z,10.10
2018-10-01T15:13:27.723Z,10.00
2018-10-01T15:15:56.860Z,10.10
2018-10-01T15:18:25.891Z,10.20
2018-10-01T15:20:55.291Z,10.50
2018-10-01T15:23:24.353Z,10.80
2018-10-01T15:25:53.407Z,11.20
2018-10-01T15:28:22.392Z,11.40
2018-10-01T15:30:51.424Z,11.40
2018-10-01T15:33:20.529Z,11.50
2018-10-01T15:35:49.586Z,11.30
2018-10-01T15:38:18.557Z,11.40
2018-10-01T15:40:47.644Z,11.50
2018-10-01T15:43:16.666Z,11.90
2018-10-01T15:45:45.688Z,12.20
2018-10-01T15:48:14.736Z,12.60
2018-10-01T15:50:43.841Z,13.10
2018-10-01T15:53:12.923Z,13.30
2018-10-01T15:55:41.993Z,13.20
2018-10-01T15:58:10.939Z,12.90
2018-10-01T16:00:40.932Z,12.60
2018-10-01T16:03:10.050Z,12.30
2018-10-01T16:05:39.053Z,11.80
2018-10-01T16:08:08.224Z,11.30
2018-10-01T16:10:37.325Z,10.90
2018-10-01T16:13:06.358Z,10.50
2018-10-01T16:15:35.365Z,10.20
2018-10-01T16:18:04.560Z,10.10
2018-10-01T16:20:33.560Z,10.00
2018-10-01T16:23:02.636Z,10.00
2018-10-01T16:25:31.676Z,9.90
2018-10-01T16:28:00.685Z,9.90
2018-10-01T16:30:29.700Z,9.80
2018-10-01T16:32:58.767Z,9.80
2018-10-01T16:35:27.757Z,9.70
2018-10-01T16:37:56.772Z,9.60
2018-10-01T16:40:25.847Z,9.60
2018-10-01T16:42:54.864Z,9.50
2018-10-01T16:45:23.865Z,9.50
2018-10-01T16:47:52.968Z,9.40
2018-10-01T16:50:21.988Z,9.30
2018-10-01T16:52:51.058Z,9.20
2018-10-01T16:55:20.049Z,9.20
2018-10-01T16:57:49.089Z,9.20
2018-10-01T17:00:18.121Z,9.10
2018-10-01T17:02:47.156Z,9.10
2018-10-01T17:05:16.136Z,9.10
2018-10-01T17:07:45.136Z,9.20
2018-10-01T17:10:14.156Z,9.10
2018-10-01T17:12:43.163Z,9.10
2018-10-01T17:15:12.210Z,9.00
2018-10-01T17:17:41.176Z,9.00
2018-10-01T17:20:10.188Z,8.90
2018-10-01T17:22:39.152Z,8.90
2018-10-01T17:25:08.213Z,8.90
2018-10-01T17:27:37.265Z,9.00
2018-10-01T17:30:07.862Z,9.10
2018-10-01T17:32:42.675Z,9.10
2018-10-01T17:35:11.777Z,9.10
2018-10-01T17:37:40.832Z,9.00
2018-10-01T17:40:09.864Z,8.80
2018-10-01T17:42:38.978Z,8.50
2018-10-01T17:45:08.113Z,8.20
2018-10-01T17:47:37.178Z,7.90
2018-10-01T17:50:07.255Z,7.70
2018-10-01T17:52:36.318Z,7.60
2018-10-01T17:55:05.724Z,7.50
2018-10-01T17:57:34.727Z,7.30
2018-10-01T18:00:03.985Z,7.20
2018-10-01T18:02:33.098Z,7.10
2018-10-01T18:05:02.159Z,7.00
2018-10-01T18:07:31.193Z,7.00
2018-10-01T18:10:00.243Z,7.00
2018-10-01T18:12:29.285Z,6.90
2018-10-01T18:14:58.293Z,6.80
2018-10-01T18:17:27.276Z,6.70
2018-10-01T18:19:56.313Z,6.70
2018-10-01T18:22:25.289Z,6.70
2018-10-01T18:24:54.296Z,6.70
2018-10-01T18:27:23.304Z,6.70
2018-10-01T18:29:52.593Z,6.70
2018-10-01T18:32:21.723Z,6.80
2018-10-01T18:34:50.706Z,6.80
2018-10-01T18:37:19.747Z,6.90
2018-10-01T18:39:48.977Z,7.00
2018-10-01T18:42:18.098Z,7.10
2018-10-01T18:44:47.085Z,7.20
2018-10-01T18:47:16.175Z,7.30
2018-10-01T18:49:45.221Z,7.30
2018-10-01T18:52:14.278Z,7.30
2018-10-01T18:54:43.257Z,7.30
2018-10-01T18:57:12.311Z,7.20
2018-10-01T18:59:41.348Z,7.10
2018-10-01T19:02:10.414Z,7.10
2018-10-01T19:04:39.442Z,7.00
2018-10-01T19:07:08.484Z,6.90
2018-10-01T19:09:37.517Z,6.90
2018-10-01T19:12:06.727Z,6.80
2018-10-01T19:14:35.745Z,6.70
2018-10-01T19:17:04.902Z,6.70
2018-10-01T19:19:33.907Z,6.70
2018-10-01T19:22:02.970Z,6.70
2018-10-01T19:24:31.998Z,6.70
2018-10-01T19:27:01.241Z,6.70
2018-10-01T19:29:30.277Z,6.70
2018-10-01T19:31:59.342Z,6.80
2018-10-01T19:34:28.500Z,6.80
2018-10-01T19:36:57.549Z,6.80
2018-10-01T19:39:26.605Z,6.80
2018-10-01T19:41:55.657Z,6.80
2018-10-01T19:44:24.748Z,6.80
2018-10-01T19:46:53.787Z,6.80
2018-10-01T19:49:22.826Z,6.70
2018-10-01T19:51:51.901Z,6.80
2018-10-01T19:54:20.948Z,6.80
2018-10-01T19:56:49.989Z,6.90
2018-10-01T19:59:19.075Z,6.90
2018-10-01T20:01:48.086Z,7.00
2018-10-01T20:04:17.149Z,7.00
2018-10-01T20:06:46.158Z,7.00
2018-10-01T20:09:15.275Z,7.00
2018-10-01T20:11:44.281Z,7.00
2018-10-01T20:14:13.373Z,7.00
2018-10-01T20:16:42.478Z,7.00
2018-10-01T20:19:11.473Z,7.00
2018-10-01T20:21:40.480Z,7.00
2018-10-01T20:24:09.588Z,7.00
2018-10-01T20:26:38.752Z,7.00
2018-10-01T20:29:07.945Z,7.10
2018-10-01T20:31:36.811Z,7.10
2018-10-01T20:34:05.847Z,7.20
2018-10-01T20:36:34.944Z,7.20
2018-10-01T20:39:05.030Z,7.30
2018-10-01T20:41:34.087Z,7.30
2018-10-01T20:44:03.123Z,7.30
2018-10-01T20:46:32.137Z,7.30
2018-10-01T20:49:01.343Z,7.30
2018-10-01T20:51:30.385Z,7.20
2018-10-01T20:53:59.398Z,7.10
2018-10-01T20:56:28.464Z,7.10
2018-10-01T20:58:57.496Z,7.00
2018-10-01T21:01:26.579Z,6.90
2018-10-01T21:03:55.585Z,6.90
2018-10-01T21:06:24.649Z,6.80
2018-10-01T21:09:00.027Z,6.70
2018-10-01T21:11:29.088Z,6.60
2018-10-01T21:13:58.119Z,6.60
2018-10-01T21:16:27.158Z,6.60
2018-10-01T21:18:56.206Z,6.50
2018-10-01T21:21:25.283Z,6.50
2018-10-01T21:23:54.297Z,6.50
2018-10-01T21:26:23.370Z,6.50
2018-10-01T21:28:52.699Z,6.50
2018-10-01T21:31:21.859Z,6.50
2018-10-01T21:33:51.081Z,6.40
2018-10-01T21:36:20.162Z,6.30
2018-10-01T21:38:49.211Z,6.30
2018-10-01T21:41:18.280Z,6.30
2018-10-01T21:43:47.306Z,6.30
2018-10-01T21:46:16.359Z,6.30
2018-10-01T21:48:46.086Z,6.30
2018-10-01T21:51:15.218Z,6.30
2018-10-01T21:53:44.509Z,6.30
2018-10-01T21:56:13.854Z,6.30
2018-10-01T21:58:43.185Z,6.30
2018-10-01T22:01:18.009Z,6.20
2018-10-01T22:03:47.175Z,6.10
2018-10-01T22:06:16.341Z,6.00
2018-10-01T22:08:45.645Z,5.90
2018-10-01T22:11:14.679Z,5.80
2018-10-01T22:13:43.776Z,5.70
2018-10-01T22:16:12.781Z,5.60
2018-10-01T22:18:41.984Z,5.60
2018-10-01T22:21:11.031Z,5.60
2018-10-01T22:23:40.056Z,5.50
2018-10-01T22:26:09.128Z,5.50
2018-10-01T22:28:38.225Z,5.50
2018-10-01T22:31:07.428Z,5.50
2018-10-01T22:33:41.856Z,5.50
2018-10-01T22:36:10.935Z,5.40
2018-10-01T22:38:39.959Z,5.40
2018-10-01T22:41:09.161Z,5.40
2018-10-01T22:43:38.526Z,5.40
2018-10-01T22:46:08.046Z,5.40
2018-10-01T22:48:37.901Z,5.50
2018-10-01T22:51:06.969Z,5.50
2018-10-01T22:53:36.013Z,5.60
2018-10-01T22:56:05.775Z,5.60
2018-10-01T22:58:35.956Z,5.60
2018-10-01T23:01:05.122Z,5.70
2018-10-01T23:03:34.351Z,5.80
2018-10-01T23:06:03.613Z,5.80
2018-10-01T23:08:33.888Z,5.80
2018-10-01T23:11:03.698Z,5.90
2018-10-01T23:13:33.041Z,5.90
2018-10-01T23:16:02.167Z,5.90
2018-10-01T23:18:31.882Z,6.00
2018-10-01T23:21:00.987Z,6.00
2018-10-01T23:23:30.270Z,5.90
2018-10-01T23:25:59.314Z,5.90
2018-10-01T23:28:28.341Z,5.80
2018-10-01T23:30:57.383Z,5.70
2018-10-01T23:33:26.475Z,5.70
2018-10-01T23:35:55.565Z,5.70
2018-10-01T23:38:24.682Z,5.60
2018-10-01T23:40:53.686Z,5.70
2018-10-01T23:43:22.686Z,5.70
2018-10-01T23:45:51.708Z,5.70
2018-10-01T23:48:20.745Z,5.70
2018-10-01T23:50:49.753Z,5.70
2018-10-01T23:53:18.809Z,5.80
2018-10-01T23:55:47.813Z,5.80
2018-10-01T23:58:16.862Z,5.80
